Time;durP1;ratioP1;P1;durP2;ratioP2;P2;SDS_P1;SDS_P2;PMS_P1;PMS_P2;Temp;Humidity;BMP_temperature;BMP_pressure;BME280_temperature;BME280_humidity;BME280_pressure;Samples;Min_cycle;Max_cycle;Signal;HPM_P1;HPM_P2
2022/03/18 00:00:24;;;;;;;2.92;2.42;;;;;;;21.30;37.95;101175.94;4198277;28;20049;-63
2022/03/18 00:02:26;;;;;;;2.42;2.20;;;;;;;21.33;37.50;101187.66;4196465;28;21519;-63
2022/03/18 00:04:28;;;;;;;4.22;2.88;;;;;;;21.33;37.89;101184.88;4198272;28;20033;-63
2022/03/18 00:06:30;;;;;;;6.07;2.92;;;;;;;21.33;37.73;101177.34;4199280;28;20070;-63
2022/03/18 00:08:34;;;;;;;6.20;2.53;;;;;;;21.31;37.45;101180.41;4198672;28;20045;-63
2022/03/18 00:10:36;;;;;;;3.22;2.63;;;;;;;21.33;37.65;101182.09;4199155;28;20033;-63
2022/03/18 00:12:40;;;;;;;3.90;2.20;;;;;;;21.33;37.82;101187.66;4198194;28;20033;-63
2022/03/18 00:14:42;;;;;;;4.03;2.45;;;;;;;21.33;37.56;101190.44;4198558;28;20101;-63
2022/03/18 00:16:43;;;;;;;3.05;2.30;;;;;;;21.31;37.78;101190.72;4198508;28;20233;-63
2022/03/18 00:18:44;;;;;;;7.90;2.85;;;;;;;21.31;37.61;101202.69;4198560;28;20094;-63
2022/03/18 00:20:47;;;;;;;5.43;2.50;;;;;;;21.33;37.66;101209.91;4198528;28;20040;-63
2022/03/18 00:22:52;;;;;;;4.65;2.75;;;;;;;21.33;37.94;101215.50;4198003;28;20048;-62
2022/03/18 00:24:53;;;;;;;4.00;2.72;;;;;;;21.31;38.08;101211.03;4198303;28;20098;-62
2022/03/18 00:26:55;;;;;;;3.75;3.08;;;;;;;21.33;38.19;101221.06;4195955;28;20094;-62
2022/03/18 00:28:56;;;;;;;4.18;2.60;;;;;;;21.24;37.73;101207.66;4198084;28;20041;-62
2022/03/18 00:30:58;;;;;;;2.95;2.40;;;;;;;21.30;37.92;101206.56;4197937;28;20045;-62
2022/03/18 00:32:59;;;;;;;3.22;2.50;;;;;;;21.31;37.95;101208.25;4198084;28;20476;-62
2022/03/18 00:35:04;;;;;;;3.85;2.42;;;;;;;21.30;37.81;101208.47;4198392;28;20535;-62
2022/03/18 00:37:05;;;;;;;3.78;2.67;;;;;;;21.31;38.14;101219.41;4198198;28;20040;-62
2022/03/18 00:39:07;;;;;;;4.43;2.42;;;;;;;21.31;38.14;101216.59;4198206;28;20479;-62
2022/03/18 00:41:11;;;;;;;6.80;2.75;;;;;;;21.27;37.90;101211.84;4197524;28;20565;-62
2022/03/18 00:43:12;;;;;;;3.10;2.47;;;;;;;21.31;38.18;101221.34;4197494;28;20071;-62
2022/03/18 00:45:14;;;;;;;4.35;2.50;;;;;;;21.30;38.00;101223.25;4198034;28;20044;-62
2022/03/18 00:52:28;;;;;;;4.85;2.40;;;;;;;21.31;37.80;101227.75;4198573;28;20090;-63
2022/03/18 00:54:22;;;;;;;3.58;2.40;;;;;;;21.30;38.08;101233.53;4195573;28;20048;-63
2022/03/18 00:56:23;;;;;;;5.97;2.30;;;;;;;21.32;37.90;101231.34;4197839;28;20044;-62
2022/03/18 00:58:24;;;;;;;3.22;2.80;;;;;;;21.32;38.05;101236.94;4192778;28;20102;-62
2022/03/18 01:00:26;;;;;;;5.38;3.13;;;;;;;21.31;38.10;101241.66;4197825;28;20094;-63
2022/03/18 01:02:27;;;;;;;4.28;2.53;;;;;;;21.28;37.90;101231.03;4197170;28;20037;-62
2022/03/18 01:04:29;;;;;;;5.57;2.67;;;;;;;21.30;38.12;101234.41;4197973;28;20041;-62
2022/03/18 01:06:31;;;;;;;3.40;2.03;;;;;;;21.30;37.90;101233.53;4197839;28;20032;-62
2022/03/18 01:08:32;;;;;;;3.95;2.42;;;;;;;21.30;37.98;101236.31;4198369;28;20114;-62
2022/03/18 01:10:37;;;;;;;4.35;2.30;;;;;;;21.30;38.10;101228.84;4197804;28;20045;-63
2022/03/18 01:12:38;;;;;;;3.58;2.50;;;;;;;21.29;38.30;101232.69;4197378;28;20097;-63
2022/03/18 01:14:39;;;;;;;4.28;2.50;;;;;;;21.27;38.21;101228.53;4198272;28;20086;-62
2022/03/18 01:16:41;;;;;;;7.00;2.70;;;;;;;21.30;38.15;101234.41;4197609;28;20040;-62
2022/03/18 01:18:42;;;;;;;5.35;2.60;;;;;;;21.28;37.98;101225.47;4197727;28;20101;-64
2022/03/18 01:20:46;;;;;;;3.90;2.58;;;;;;;21.30;37.99;101234.41;4197775;28;20467;-64
2022/03/18 01:22:56;;;;;;;4.25;2.88;;;;;;;21.29;37.84;101227.13;4196573;28;20040;-62
2022/03/18 01:24:58;;;;;;;3.42;2.55;;;;;;;21.31;38.16;101229.69;4197605;28;20451;-63
2022/03/18 01:26:59;;;;;;;4.07;2.58;;;;;;;21.27;38.11;101223.81;4196749;28;20097;-64
2022/03/18 01:29:01;;;;;;;4.72;2.33;;;;;;;21.27;38.49;101225.75;4197624;28;20041;-63
2022/03/18 01:31:02;;;;;;;3.33;2.42;;;;;;;21.28;38.07;101230.22;4197328;28;20044;-63
2022/03/18 01:33:06;;;;;;;4.78;2.78;;;;;;;21.29;38.48;101227.13;4197426;28;20472;-63
2022/03/18 01:35:08;;;;;;;3.22;2.28;;;;;;;21.28;37.92;101233.00;4197705;28;20041;-62
2022/03/18 01:37:13;;;;;;;6.43;3.13;;;;;;;21.24;38.02;101229.91;4197542;28;20480;-63
2022/03/18 01:39:14;;;;;;;4.17;2.60;;;;;;;21.30;38.35;101247.44;4197676;28;20044;-63
2022/03/18 01:41:17;;;;;;;3.78;2.88;;;;;;;21.29;38.19;101249.41;4179561;28;20075;-62
2022/03/18 01:43:18;;;;;;;2.90;2.40;;;;;;;21.23;38.36;101253.28;4197191;28;20044;-63
2022/03/18 01:45:20;;;;;;;5.65;2.83;;;;;;;21.31;38.05;101263.09;4197428;28;20094;-63
2022/03/18 01:47:22;;;;;;;4.13;2.70;;;;;;;21.27;38.12;101257.19;4197953;28;20041;-63
2022/03/18 01:49:23;;;;;;;6.65;2.78;;;;;;;21.30;38.23;101255.81;4197383;28;20041;-63
2022/03/18 01:51:24;;;;;;;3.53;2.47;;;;;;;21.28;38.08;101258.88;4196989;28;20086;-63
2022/03/18 01:53:26;;;;;;;3.53;2.60;;;;;;;21.29;38.37;101254.13;4197358;28;20369;-62
2022/03/18 01:55:27;;;;;;;3.83;2.63;;;;;;;21.28;38.11;101260.81;4197568;28;20040;-62
2022/03/18 01:57:32;;;;;;;2.88;2.58;;;;;;;21.24;38.18;101257.75;4197001;28;20187;-62
2022/03/18 01:59:33;;;;;;;3.00;2.42;;;;;;;21.30;38.38;101261.38;4197442;28;20373;-63
2022/03/18 02:01:35;;;;;;;4.97;2.75;;;;;;;21.29;38.51;101260.53;4196954;28;20051;-63
2022/03/18 02:03:37;;;;;;;3.45;2.50;;;;;;;21.29;37.99;101260.53;4197041;28;20369;-64
2022/03/18 02:05:40;;;;;;;3.70;2.50;;;;;;;21.29;37.96;101254.97;4196871;28;20098;-62
2022/03/18 02:07:44;;;;;;;4.10;3.00;;;;;;;21.26;37.98;101261.09;4197113;28;20044;-64
2022/03/18 02:09:45;;;;;;;2.42;2.22;;;;;;;21.26;38.46;101254.72;4196945;28;20066;-64
2022/03/18 02:11:47;;;;;;;3.00;2.20;;;;;;;21.30;37.88;101259.44;4195958;28;20036;-62
2022/03/18 02:13:56;;;;;;;3.70;2.20;;;;;;;21.26;38.46;101266.69;4179286;28;20033;-63
2022/03/18 02:16:02;;;;;;;3.03;2.30;;;;;;;21.22;38.22;101259.16;4201033;28;20029;-64
2022/03/18 02:18:05;;;;;;;2.95;2.40;;;;;;;21.27;38.37;101261.94;4201112;28;20402;-64
2022/03/18 02:20:07;;;;;;;3.22;2.30;;;;;;;21.27;38.11;101268.34;4200164;28;20093;-62
2022/03/18 02:22:13;;;;;;;3.53;2.35;;;;;;;21.09;38.27;101241.03;4200571;28;20024;-64
2022/03/18 02:24:14;;;;;;;5.65;2.80;;;;;;;21.27;38.18;101273.91;4200351;28;20044;-64
2022/03/18 02:26:16;;;;;;;3.08;2.28;;;;;;;21.20;38.03;101262.19;4200293;28;20036;-63
2022/03/18 02:28:19;;;;;;;4.30;2.42;;;;;;;21.25;37.91;101281.69;4198993;28;20105;-64
2022/03/18 02:30:21;;;;;;;4.47;2.25;;;;;;;21.22;38.15;101268.34;4200177;28;20792;-63
2022/03/18 02:32:24;;;;;;;3.42;2.60;;;;;;;21.27;38.47;101273.91;4200317;28;20098;-63
2022/03/18 02:34:27;;;;;;;4.50;2.40;;;;;;;21.27;38.37;101276.69;4201112;28;20049;-63
2022/03/18 02:36:29;;;;;;;4.95;2.60;;;;;;;21.28;38.18;101283.91;4201005;28;20037;-63
2022/03/18 02:38:31;;;;;;;3.25;2.60;;;;;;;21.25;38.23;101270.53;4198794;28;20101;-64
2022/03/18 02:40:32;;;;;;;5.07;2.58;;;;;;;21.25;38.40;101270.53;4200076;28;20040;-64
2022/03/18 02:42:36;;;;;;;3.85;2.65;;;;;;;21.27;38.22;101256.38;4199708;28;20043;-62
2022/03/18 02:44:38;;;;;;;2.80;2.40;;;;;;;21.26;38.11;101258.31;4200241;28;20047;-65
2022/03/18 02:46:39;;;;;;;3.08;2.40;;;;;;;21.23;38.52;101249.69;4182327;28;20092;-64
2022/03/18 02:48:41;;;;;;;2.45;2.25;;;;;;;21.28;38.20;101264.44;4200070;28;20086;-64
2022/03/18 02:50:43;;;;;;;5.40;2.65;;;;;;;21.26;37.98;101255.53;4199722;28;20044;-64
2022/03/18 02:52:47;;;;;;;3.47;2.60;;;;;;;21.27;38.06;101254.41;4199217;28;20040;-63
2022/03/18 02:54:49;;;;;;;3.70;2.88;;;;;;;21.28;38.23;101258.03;4199588;28;20059;-63
2022/03/18 02:56:50;;;;;;;2.97;2.58;;;;;;;21.27;38.23;101251.63;4199691;28;20093;-63
2022/03/18 02:58:52;;;;;;;3.38;2.20;;;;;;;21.27;38.30;101248.84;4181869;28;20075;-64
2022/03/18 03:00:53;;;;;;;3.72;2.67;;;;;;;21.27;37.99;101245.25;4199325;28;20097;-64
2022/03/18 03:02:55;;;;;;;3.47;2.70;;;;;;;21.25;38.38;101231.56;4199847;28;20028;-64
2022/03/18 03:09:35;;;;;;;5.43;2.25;;;;;;;21.26;38.35;101227.72;4200707;28;20094;-64
2022/03/18 03:11:40;;;;;;;5.00;2.60;;;;;;;21.26;38.29;101238.84;4181259;28;20465;-63
2022/03/18 03:13:41;;;;;;;3.65;2.03;;;;;;;21.27;37.90;101234.09;4199268;28;20090;-63
2022/03/18 03:15:42;;;;;;;2.75;2.13;;;;;;;21.26;38.36;101230.50;4200155;28;20059;-64
2022/03/18 03:17:46;;;;;;;3.88;2.08;;;;;;;21.17;38.35;101211.84;4199629;28;20040;-63
2022/03/18 03:19:48;;;;;;;3.60;2.38;;;;;;;21.17;38.33;101217.41;4200140;28;20395;-63
2022/03/18 03:21:49;;;;;;;5.22;2.80;;;;;;;21.28;38.18;101235.78;4199225;28;20094;-63
2022/03/18 03:23:53;;;;;;;2.45;2.25;;;;;;;21.27;38.30;101237.72;4199445;28;20102;-64
2022/03/18 03:25:56;;;;;;;3.95;2.30;;;;;;;21.26;38.54;101244.41;4199112;28;20072;-64
2022/03/18 03:27:57;;;;;;;3.53;2.60;;;;;;;21.27;38.06;101234.94;4199245;28;20040;-64
2022/03/18 03:30:00;;;;;;;3.85;2.88;;;;;;;21.26;38.25;101238.84;4198920;28;20391;-63
2022/03/18 03:32:01;;;;;;;3.10;2.47;;;;;;;21.26;38.17;101233.28;4198405;28;20094;-64
2022/03/18 03:34:03;;;;;;;2.80;2.42;;;;;;;21.24;38.06;101241.03;4199009;28;20095;-63
2022/03/18 03:38:26;;;;;;;4.38;2.25;;;;;;;21.28;38.53;101242.16;4184550;28;20037;-63
2022/03/18 03:40:37;;;;;;;3.50;3.08;;;;;;;21.27;38.31;101245.25;4199191;28;20142;-63
2022/03/18 03:42:40;;;;;;;3.40;2.40;;;;;;;21.26;38.47;101244.41;4198915;28;20036;-63
2022/03/18 03:44:41;;;;;;;4.28;2.60;;;;;;;21.25;38.05;101242.72;4199001;28;20078;-64
2022/03/18 03:46:43;;;;;;;2.72;2.40;;;;;;;21.27;38.24;101250.81;4199205;28;20040;-63
2022/03/18 03:48:44;;;;;;;3.53;2.25;;;;;;;21.27;38.43;101246.06;4199333;28;20032;-64
2022/03/18 03:50:47;;;;;;;2.70;2.40;;;;;;;21.26;38.27;101249.13;4200127;28;20041;-62
2022/03/18 03:52:48;;;;;;;3.80;2.45;;;;;;;21.25;38.38;101245.50;4198568;28;20559;-63
2022/03/18 03:54:50;;;;;;;4.53;2.20;;;;;;;21.27;38.39;101250.81;4199843;28;20040;-63
2022/03/18 03:56:51;;;;;;;2.65;2.30;;;;;;;21.26;38.09;101249.97;4198561;28;20427;-63
2022/03/18 03:58:52;;;;;;;3.00;2.53;;;;;;;21.24;38.13;101238.25;4198965;28;20045;-63
2022/03/18 04:00:54;;;;;;;3.83;2.47;;;;;;;21.25;38.02;101248.28;4198784;28;20109;-63
2022/03/18 04:02:55;;;;;;;3.80;2.38;;;;;;;21.23;38.26;101242.16;4198233;28;20097;-63
2022/03/18 04:04:59;;;;;;;3.85;2.50;;;;;;;21.09;38.30;101220.72;4198782;28;20438;-64
2022/03/18 04:07:01;;;;;;;3.42;2.25;;;;;;;21.25;38.26;101247.44;4198546;28;20036;-63
2022/03/18 04:09:05;;;;;;;2.85;2.35;;;;;;;21.21;38.35;101246.31;4198917;28;20475;-64
2022/03/18 04:11:07;;;;;;;3.05;2.30;;;;;;;21.24;38.11;101252.19;4198670;28;20110;-63
2022/03/18 04:13:10;;;;;;;3.53;2.15;;;;;;;21.19;38.47;101241.03;4198735;28;20048;-62
2022/03/18 04:15:12;;;;;;;2.47;2.28;;;;;;;21.25;38.28;101253.84;4198785;28;20036;-63
2022/03/18 04:17:13;;;;;;;3.75;2.65;;;;;;;21.24;38.10;101254.97;4198510;28;20041;-63
2022/03/18 04:19:15;;;;;;;2.30;2.10;;;;;;;21.24;38.26;101263.31;4198385;28;20040;-62
2022/03/18 04:21:16;;;;;;;3.00;2.35;;;;;;;21.21;38.37;101255.53;4198228;28;20040;-62
2022/03/18 04:23:26;;;;;;;2.10;1.67;;;;;;;21.24;38.02;101263.31;4198684;28;20036;-62
2022/03/18 04:25:28;;;;;;;2.45;2.05;;;;;;;21.18;38.12;101253.28;4197903;28;20029;-62
2022/03/18 04:27:29;;;;;;;2.42;2.22;;;;;;;21.23;38.39;101256.09;4198700;28;20052;-62
2022/03/18 04:29:31;;;;;;;3.33;2.58;;;;;;;21.24;38.14;101252.19;4198537;28;20090;-62
2022/03/18 04:31:32;;;;;;;2.45;2.08;;;;;;;21.23;38.11;101253.28;4198607;28;20048;-63
2022/03/18 04:33:34;;;;;;;3.28;2.60;;;;;;;21.24;38.60;101256.91;4198625;28;20040;-63
2022/03/18 04:35:35;;;;;;;4.22;2.40;;;;;;;21.24;38.45;101251.34;4198287;28;20040;-63
2022/03/18 04:37:40;;;;;;;3.85;2.85;;;;;;;21.22;38.47;101248.84;4198199;28;20530;-63
2022/03/18 04:39:41;;;;;;;3.45;2.47;;;;;;;21.20;38.20;101245.50;4198911;28;20032;-62
2022/03/18 04:41:43;;;;;;;3.10;2.50;;;;;;;21.25;38.30;101258.56;4182098;28;20028;-62
2022/03/18 04:43:44;;;;;;;4.05;2.90;;;;;;;21.23;38.34;101264.44;4200150;28;20032;-63
2022/03/18 04:45:46;;;;;;;2.88;2.10;;;;;;;21.23;38.49;101264.44;4198233;28;20476;-62
2022/03/18 04:47:48;;;;;;;4.38;2.80;;;;;;;21.21;38.60;101261.09;4198597;28;20082;-64
2022/03/18 04:49:49;;;;;;;4.03;2.63;;;;;;;21.23;38.19;101260.81;4198435;28;20048;-64
2022/03/18 04:51:54;;;;;;;4.13;2.90;;;;;;;21.21;38.47;101263.88;4198972;28;20028;-62
2022/03/18 04:53:55;;;;;;;3.40;2.80;;;;;;;21.20;38.37;101256.63;4198367;28;20041;-60
2022/03/18 04:55:59;;;;;;;5.40;2.47;;;;;;;21.22;38.23;101262.78;4199914;28;20090;-63
2022/03/18 04:58:01;;;;;;;3.23;2.23;;;;;;;21.23;38.41;101264.44;4198956;28;20476;-63
2022/03/18 05:00:05;;;;;;;2.45;2.08;;;;;;;21.18;38.19;101264.44;4182008;28;20451;-63
2022/03/18 05:02:07;;;;;;;2.38;2.17;;;;;;;21.23;38.29;101272.78;4200462;28;20097;-62
2022/03/18 05:04:08;;;;;;;3.53;2.55;;;;;;;21.23;38.23;101271.94;4198759;28;20434;-62
2022/03/18 05:06:13;;;;;;;2.90;2.50;;;;;;;21.21;38.22;101272.22;4198848;28;20094;-64
2022/03/18 05:08:14;;;;;;;3.07;2.07;;;;;;;21.22;38.25;101276.69;4198240;28;20032;-63
2022/03/18 05:10:16;;;;;;;3.30;2.30;;;;;;;21.21;38.42;101286.16;4198801;28;20078;-64
2022/03/18 05:12:18;;;;;;;3.47;2.50;;;;;;;21.22;38.47;101293.38;4180474;28;20500;-63
2022/03/18 05:14:19;;;;;;;3.90;2.40;;;;;;;21.21;38.55;101288.06;4197519;28;20094;-63
2022/03/18 05:16:21;;;;;;;3.03;2.53;;;;;;;21.19;38.54;101288.34;4197695;28;20487;-64
2022/03/18 05:18:31;;;;;;;3.58;2.40;;;;;;;21.20;38.43;101290.03;4199277;28;20533;-63
2022/03/18 05:20:34;;;;;;;3.33;2.60;;;;;;;21.22;38.56;101293.38;4197968;28;20036;-63
2022/03/18 05:22:38;;;;;;;3.33;2.72;;;;;;;21.19;38.23;101288.34;4197347;28;20044;-63
2022/03/18 05:24:43;;;;;;;3.50;2.47;;;;;;;21.21;38.27;101297.28;4197368;28;20488;-63
2022/03/18 05:26:44;;;;;;;3.17;2.80;;;;;;;21.23;38.25;101300.63;4198365;28;20422;-63
2022/03/18 05:28:46;;;;;;;2.65;2.40;;;;;;;21.23;38.36;101303.41;4197458;28;20094;-63
2022/03/18 05:30:47;;;;;;;2.63;2.20;;;;;;;21.22;38.46;101304.50;4179883;28;20037;-61
2022/03/18 05:32:50;;;;;;;2.53;2.30;;;;;;;21.22;38.35;101296.16;4197209;28;20541;-60
2022/03/18 05:34:51;;;;;;;4.30;3.05;;;;;;;21.22;38.42;101306.47;4179678;28;20463;-61
2022/03/18 05:36:52;;;;;;;3.65;2.65;;;;;;;21.20;38.73;101300.31;4197691;28;20040;-62
2022/03/18 05:38:53;;;;;;;3.13;2.30;;;;;;;21.21;38.71;101300.06;4197792;28;20036;-62
2022/03/18 05:40:55;;;;;;;4.05;2.42;;;;;;;21.21;38.65;101308.41;4197879;28;20052;-62
2022/03/18 05:42:59;;;;;;;3.25;2.65;;;;;;;21.21;38.39;101302.84;4197450;28;20094;-62
2022/03/18 05:45:00;;;;;;;2.78;2.40;;;;;;;21.19;38.63;101302.28;4197703;28;20048;-63
2022/03/18 05:47:02;;;;;;;3.05;2.40;;;;;;;21.19;38.61;101313.41;4197276;28;20044;-62
2022/03/18 05:49:04;;;;;;;2.85;2.42;;;;;;;21.07;38.62;101296.09;4196814;28;20117;-63
2022/03/18 05:51:05;;;;;;;3.42;2.67;;;;;;;21.20;38.34;101317.84;4197453;28;20095;-62
2022/03/18 05:53:06;;;;;;;3.63;2.78;;;;;;;21.19;38.28;101316.19;4197735;28;20442;-62
2022/03/18 05:55:08;;;;;;;3.05;2.33;;;;;;;21.20;38.58;101320.63;4197458;28;20036;-62
2022/03/18 05:57:12;;;;;;;3.17;2.33;;;;;;;21.15;38.67;101315.06;4197502;28;20040;-62
2022/03/18 05:59:14;;;;;;;3.92;2.65;;;;;;;21.20;38.48;101315.06;4197323;28;20044;-62
2022/03/18 06:01:16;;;;;;;2.05;1.85;;;;;;;21.20;38.40;101323.41;4197890;28;20098;-62
2022/03/18 06:03:18;;;;;;;4.18;2.88;;;;;;;21.19;38.57;101321.75;4198353;28;20098;-61
2022/03/18 06:05:20;;;;;;;2.95;2.65;;;;;;;21.20;38.48;101328.97;4197070;28;20044;-63
2022/03/18 06:07:24;;;;;;;3.83;2.13;;;;;;;21.17;38.52;101323.16;4197184;28;20033;-64
2022/03/18 06:11:48;;;;;;;3.05;2.75;;;;;;;21.20;38.47;101328.97;4197676;28;20074;-63
2022/03/18 06:13:49;;;;;;;2.92;2.55;;;;;;;21.15;38.57;101320.63;4197215;28;20036;-63
2022/03/18 06:15:51;;;;;;;3.92;2.38;;;;;;;21.22;38.35;101331.50;4197623;28;20075;-63
2022/03/18 06:17:55;;;;;;;3.13;2.53;;;;;;;21.23;38.61;101322.03;4197005;28;20086;-63
2022/03/18 06:19:56;;;;;;;4.15;3.00;;;;;;;21.21;38.50;101330.69;4197260;28;20040;-63
2022/03/18 06:21:59;;;;;;;3.63;2.92;;;;;;;21.22;38.49;101326.78;4197342;28;20082;-62
2022/03/18 06:24:00;;;;;;;3.47;2.55;;;;;;;21.21;38.71;101319.53;4196952;28;20040;-63
2022/03/18 06:26:02;;;;;;;2.80;2.55;;;;;;;21.20;38.35;101323.41;4197122;28;20094;-63
2022/03/18 06:28:04;;;;;;;3.40;2.53;;;;;;;21.21;38.31;101325.13;4196623;28;20041;-64
2022/03/18 06:30:06;;;;;;;3.30;2.67;;;;;;;21.20;38.69;101323.41;4197238;28;20121;-62
2022/03/18 06:32:08;;;;;;;4.50;2.72;;;;;;;21.20;38.51;101317.00;4197061;28;20089;-62
2022/03/18 06:34:11;;;;;;;3.10;2.45;;;;;;;21.20;38.31;101317.84;4196633;28;20472;-62
2022/03/18 06:36:13;;;;;;;3.15;2.50;;;;;;;21.20;38.72;101323.41;4196752;28;20041;-63
2022/03/18 06:38:14;;;;;;;3.20;2.45;;;;;;;21.19;38.78;101318.97;4197098;28;20037;-63
2022/03/18 06:40:16;;;;;;;2.95;2.65;;;;;;;21.19;38.79;101315.34;4197607;28;20430;-63
2022/03/18 06:42:20;;;;;;;3.17;2.47;;;;;;;21.19;38.72;101324.53;4196591;28;20032;-63
2022/03/18 06:44:24;;;;;;;3.17;2.55;;;;;;;21.20;38.53;101312.28;4196776;28;20109;-63
2022/03/18 06:46:25;;;;;;;3.33;2.70;;;;;;;21.20;38.31;101317.84;4197116;28;20036;-63
2022/03/18 06:48:27;;;;;;;2.78;2.47;;;;;;;21.21;38.33;101319.53;4197508;28;20090;-63
2022/03/18 06:50:28;;;;;;;3.83;2.72;;;;;;;21.20;38.50;101315.06;4196668;28;20082;-61
2022/03/18 06:52:30;;;;;;;3.00;2.50;;;;;;;21.21;38.57;101316.75;4196533;28;20087;-64
2022/03/18 06:54:31;;;;;;;2.45;2.22;;;;;;;21.21;38.41;101315.91;4196879;28;20048;-62
2022/03/18 06:56:33;;;;;;;3.97;2.95;;;;;;;21.20;38.68;101317.84;4196764;28;20120;-63
2022/03/18 06:58:35;;;;;;;3.10;2.45;;;;;;;21.19;38.47;101316.19;4197515;28;20098;-63
2022/03/18 07:00:38;;;;;;;3.08;2.50;;;;;;;21.19;38.89;101327.31;4197901;28;20041;-63
2022/03/18 07:02:40;;;;;;;3.70;2.50;;;;;;;21.17;38.68;101318.41;4199207;28;20041;-62
2022/03/18 07:04:41;;;;;;;3.78;2.83;;;;;;;21.17;38.73;101312.03;4197378;28;20090;-62
2022/03/18 07:06:43;;;;;;;3.38;2.78;;;;;;;21.18;38.46;101320.09;4198648;28;20044;-62
2022/03/18 07:08:45;;;;;;;4.25;2.88;;;;;;;21.19;38.66;101326.47;4199504;28;20040;-64
2022/03/18 07:10:46;;;;;;;5.38;3.03;;;;;;;21.16;38.63;101322.28;4200150;28;20426;-63
2022/03/18 07:12:48;;;;;;;3.05;2.75;;;;;;;21.18;38.83;101324.81;4199281;28;20058;-63
2022/03/18 07:14:49;;;;;;;4.35;2.60;;;;;;;21.18;38.62;101325.66;4199606;28;20040;-63
2022/03/18 07:19:10;;;;;;;3.58;2.78;;;;;;;21.18;38.89;101316.47;4200311;28;20090;-65
2022/03/18 07:21:14;;;;;;;3.45;2.90;;;;;;;21.18;38.79;101324.81;4181394;28;20045;-63
2022/03/18 07:23:19;;;;;;;4.15;2.92;;;;;;;21.18;38.71;101320.09;4199012;28;20040;-64
2022/03/18 07:25:22;;;;;;;3.42;2.85;;;;;;;21.17;38.65;101329.56;4199005;28;20943;-64
2022/03/18 07:27:24;;;;;;;3.85;2.83;;;;;;;21.20;38.46;101333.72;4194718;28;20044;-64
2022/03/18 07:29:25;;;;;;;3.70;2.78;;;;;;;21.16;38.62;101333.41;4199455;28;20086;-62
2022/03/18 07:31:26;;;;;;;3.10;2.80;;;;;;;21.20;38.67;101333.72;4198927;28;20040;-63
2022/03/18 07:33:28;;;;;;;3.20;2.90;;;;;;;21.19;38.81;101338.44;4199373;28;20086;-63
2022/03/18 07:35:30;;;;;;;3.45;3.08;;;;;;;21.19;38.71;101341.22;4199533;28;20044;-63
2022/03/18 07:37:31;;;;;;;3.65;2.60;;;;;;;21.19;38.96;101341.22;4198978;28;20082;-63
2022/03/18 07:39:32;;;;;;;3.17;2.80;;;;;;;21.19;38.80;101338.44;4199144;28;20049;-63
2022/03/18 07:41:35;;;;;;;2.97;2.63;;;;;;;21.19;38.54;101344.00;4198976;28;20082;-61
2022/03/18 07:43:37;;;;;;;3.67;2.90;;;;;;;21.18;38.58;101347.09;4198905;28;20045;-62
2022/03/18 07:45:41;;;;;;;2.97;2.60;;;;;;;21.19;38.75;101344.00;4199020;28;20438;-62
2022/03/18 07:47:42;;;;;;;2.80;2.50;;;;;;;21.19;38.49;101344.00;4198935;28;20036;-63
2022/03/18 07:49:44;;;;;;;3.47;2.40;;;;;;;21.20;38.43;101344.84;4199187;28;20578;-63
2022/03/18 07:51:45;;;;;;;3.53;3.00;;;;;;;21.19;38.50;101343.19;4199193;28;20033;-63
2022/03/18 07:53:46;;;;;;;3.50;3.20;;;;;;;21.19;38.55;101338.44;4198983;28;20399;-63
2022/03/18 07:55:48;;;;;;;3.58;2.50;;;;;;;21.19;38.73;101343.19;4199037;28;20110;-63
2022/03/18 07:57:49;;;;;;;3.63;2.78;;;;;;;21.18;38.73;101342.34;4199096;28;20036;-63
2022/03/18 07:59:50;;;;;;;3.05;2.70;;;;;;;21.17;38.78;101353.75;4198889;28;20480;-63
2022/03/18 08:01:51;;;;;;;2.50;2.30;;;;;;;21.17;38.74;101350.97;4199147;28;20024;-63
2022/03/18 08:03:53;;;;;;;3.42;3.00;;;;;;;21.18;38.75;101353.47;4199413;28;20098;-63
2022/03/18 08:05:57;;;;;;;5.03;2.72;;;;;;;21.17;38.89;101354.59;4198444;28;20419;-63
2022/03/18 08:07:59;;;;;;;5.03;2.80;;;;;;;21.18;38.70;101358.22;4197151;28;20040;-63
2022/03/18 08:10:03;;;;;;;5.43;3.28;;;;;;;21.12;38.92;101343.44;4198755;28;20086;-63
2022/03/18 08:12:05;;;;;;;4.40;2.97;;;;;;;21.19;38.55;101359.88;4197124;28;20485;-62
2022/03/18 08:14:07;;;;;;;3.88;2.33;;;;;;;21.20;38.64;101362.38;4198316;28;20036;-62
2022/03/18 08:16:08;;;;;;;3.25;2.72;;;;;;;21.19;38.54;101365.44;4198673;28;20032;-63
2022/03/18 08:18:10;;;;;;;3.00;2.67;;;;;;;21.18;38.93;101361.84;4198620;28;20040;-62
2022/03/18 08:20:14;;;;;;;4.38;3.30;;;;;;;21.19;38.64;101366.28;4198353;28;20373;-63
2022/03/18 08:22:15;;;;;;;3.35;2.67;;;;;;;21.16;39.01;101366.81;4197853;28;20128;-63
2022/03/18 08:24:18;;;;;;;3.78;2.70;;;;;;;21.14;39.02;101362.66;4180544;28;20130;-63
2022/03/18 08:26:19;;;;;;;3.60;2.75;;;;;;;21.18;39.03;101370.19;4198944;28;20077;-63
2022/03/18 08:28:21;;;;;;;3.30;2.58;;;;;;;21.17;38.59;101371.28;4198439;28;20150;-64
2022/03/18 08:30:22;;;;;;;5.20;3.67;;;;;;;21.12;38.97;101365.72;4197546;28;20041;-62
2022/03/18 08:32:28;;;;;;;4.97;3.47;;;;;;;21.16;38.76;101383.50;4198178;28;20041;-62
2022/03/18 08:34:29;;;;;;;3.88;3.05;;;;;;;21.16;38.59;101375.16;4198220;28;20422;-64
2022/03/18 08:36:31;;;;;;;3.67;2.75;;;;;;;21.05;38.90;101365.13;4197901;28;20045;-63
2022/03/18 08:38:35;;;;;;;3.05;2.60;;;;;;;21.12;39.12;101387.97;4198129;28;20036;-63
2022/03/18 08:40:37;;;;;;;3.60;2.53;;;;;;;21.16;38.74;101389.06;4198416;28;20049;-64
2022/03/18 08:42:42;;;;;;;3.83;3.30;;;;;;;21.17;39.10;101393.56;4197291;28;20098;-64
2022/03/18 08:44:43;;;;;;;3.55;3.20;;;;;;;21.17;38.95;101401.91;4198054;28;20097;-64
2022/03/18 08:46:44;;;;;;;3.45;2.83;;;;;;;21.17;38.64;101401.06;4198386;28;20041;-63
2022/03/18 08:48:46;;;;;;;4.07;2.95;;;;;;;21.17;38.76;101398.28;4197592;28;20446;-62
2022/03/18 08:50:47;;;;;;;2.63;2.30;;;;;;;21.17;38.88;101401.91;4198392;28;20090;-64
2022/03/18 08:52:53;;;;;;;3.65;3.08;;;;;;;21.17;38.70;101406.66;4198333;28;20054;-65
2022/03/18 08:54:55;;;;;;;6.10;2.83;;;;;;;21.15;38.87;101404.09;4199164;28;20479;-63
2022/03/18 08:56:59;;;;;;;4.22;2.92;;;;;;;21.16;38.75;101411.34;4198912;28;20044;-63
2022/03/18 08:59:06;;;;;;;4.22;2.90;;;;;;;21.14;38.69;101405.22;4199665;28;20037;-63
2022/03/18 09:01:07;;;;;;;3.22;2.58;;;;;;;21.16;39.06;101407.72;4199454;28;20040;-65
2022/03/18 09:03:09;;;;;;;4.13;3.10;;;;;;;21.16;38.72;101414.13;4199650;28;20040;-64
2022/03/18 09:05:12;;;;;;;3.88;2.75;;;;;;;21.13;38.95;101406.34;4198933;28;20040;-63
2022/03/18 09:07:13;;;;;;;3.05;2.67;;;;;;;21.13;38.59;101406.34;4181830;28;20091;-63
2022/03/18 09:09:14;;;;;;;3.70;2.88;;;;;;;21.15;39.05;101415.25;4198600;28;20041;-63
2022/03/18 09:11:16;;;;;;;3.03;2.72;;;;;;;21.16;39.00;101410.50;4199317;28;20036;-62
2022/03/18 09:13:23;;;;;;;3.33;2.75;;;;;;;21.12;38.56;101404.66;4200003;28;20033;-64
2022/03/18 09:15:25;;;;;;;4.70;3.17;;;;;;;21.16;38.57;101411.34;4200626;28;20114;-63
2022/03/18 09:17:26;;;;;;;4.55;2.83;;;;;;;21.16;38.66;101416.91;4200344;28;20040;-63
2022/03/18 09:19:28;;;;;;;4.00;2.88;;;;;;;21.15;38.81;101415.25;4198986;28;20041;-63
2022/03/18 09:21:29;;;;;;;3.65;2.92;;;;;;;21.15;38.76;101415.25;4198990;28;20109;-63
2022/03/18 09:23:31;;;;;;;3.97;2.92;;;;;;;21.10;38.90;101408.81;4199706;28;20036;-63
2022/03/18 09:25:32;;;;;;;3.88;3.20;;;;;;;21.16;38.70;101405.78;4181099;28;20087;-63
2022/03/18 09:27:34;;;;;;;3.20;2.90;;;;;;;21.17;38.81;101407.47;4197434;28;20044;-64
2022/03/18 09:29:36;;;;;;;3.38;2.78;;;;;;;21.10;38.93;101398.53;4198627;28;20024;-63
2022/03/18 09:31:38;;;;;;;4.07;3.28;;;;;;;21.16;38.87;101413.28;4197719;28;20040;-62
2022/03/18 09:33:42;;;;;;;4.32;3.13;;;;;;;21.15;38.75;101418.03;4197620;28;20040;-64
2022/03/18 09:35:43;;;;;;;4.47;2.72;;;;;;;21.16;38.81;101422.47;4198116;28;20036;-62
2022/03/18 09:37:45;;;;;;;3.17;2.67;;;;;;;21.16;38.75;101433.59;4198743;28;20028;-62
2022/03/18 09:39:46;;;;;;;3.97;2.67;;;;;;;20.99;38.75;101405.16;4197259;28;20044;-62
2022/03/18 09:41:48;;;;;;;3.70;2.67;;;;;;;21.16;39.08;101439.19;4197117;28;20406;-62
2022/03/18 09:43:52;;;;;;;4.10;2.85;;;;;;;21.16;38.82;101435.56;4196898;28;20033;-63